Weather at Santorini Airport

Public forecast

Using degrees Celsius for public forecast. Weather courtesy of forecast.io.

Current aviation weather report (METAR) for Santorini Airport

2024/06/22 11:50 (retrieved 20 minutes ago)

LGSR 221150Z 35012KT CAVOK 28/17 Q1006

Aviation forecast (TAF) for Santorini Airport

2024/06/22 12:12 (retrieved 0 seconds ago)

TAF LGSR 221100Z 2212/2312 33015KT CAVOK